createdAt,value
2018-02-17T00:01:38.584Z,6.35
2018-02-17T00:04:08.081Z,6.32
2018-02-17T00:06:38.640Z,6.38
2018-02-17T00:09:10.558Z,6.38
2018-02-17T00:11:42.730Z,6.38
2018-02-17T00:14:13.674Z,6.37
2018-02-17T00:16:44.134Z,6.34
2018-02-17T00:19:14.132Z,6.29
2018-02-17T00:21:43.447Z,6.20
2018-02-17T00:24:15.152Z,6.05
2018-02-17T00:26:45.412Z,6.17
2018-02-17T00:29:14.764Z,6.20
2018-02-17T00:31:44.031Z,6.19
2018-02-17T00:34:17.211Z,6.21
2018-02-17T00:36:47.227Z,6.16
2018-02-17T00:39:19.093Z,6.14
2018-02-17T00:41:49.711Z,6.14
2018-02-17T00:44:20.357Z,6.11
2018-02-17T00:46:49.668Z,6.14
2018-02-17T00:49:21.203Z,6.05
2018-02-17T00:51:52.165Z,6.06
2018-02-17T00:57:41.769Z,6.08
2018-02-17T01:00:28.376Z,6.13
2018-02-17T01:02:59.997Z,6.15
2018-02-17T01:05:37.540Z,6.21
2018-02-17T01:08:10.530Z,6.19
2018-02-17T01:10:40.107Z,6.17
2018-02-17T01:13:15.631Z,6.21
2018-02-17T01:15:47.130Z,6.15
2018-02-17T01:18:22.450Z,6.14
2018-02-17T01:44:20.367Z,6.42
2018-02-17T01:46:52.228Z,6.38
2018-02-17T01:49:21.896Z,6.37
2018-02-17T01:51:52.134Z,6.32
2018-02-17T01:54:32.073Z,6.26
2018-02-17T01:57:02.450Z,6.25
2018-02-17T01:59:32.660Z,6.30
2018-02-17T02:02:03.068Z,6.28
2018-02-17T02:04:33.859Z,6.22
2018-02-17T02:07:04.815Z,6.17
2018-02-17T02:09:35.806Z,6.16
2018-02-17T02:12:13.237Z,6.13
2018-02-17T02:14:45.241Z,6.20
2018-02-17T02:17:19.089Z,6.20
2018-02-17T02:19:51.270Z,6.23
2018-02-17T02:22:23.110Z,6.27
2018-02-17T02:24:54.414Z,6.18
2018-02-17T02:27:24.429Z,6.22
2018-02-17T02:29:54.317Z,6.24
2018-02-17T02:32:24.097Z,6.22
2018-02-17T02:34:54.032Z,6.24
2018-02-17T02:37:23.652Z,6.23
2018-02-17T02:39:55.815Z,6.24
2018-02-17T02:42:25.087Z,6.28
2018-02-17T02:44:55.123Z,6.20
2018-02-17T02:47:24.340Z,6.18
2018-02-17T02:49:53.827Z,6.16
2018-02-17T02:52:25.228Z,6.13
2018-02-17T02:54:56.717Z,6.17
2018-02-17T02:57:27.627Z,6.19
2018-02-17T03:00:00.437Z,6.21
2018-02-17T03:02:31.108Z,6.23
2018-02-17T03:05:01.630Z,6.19
2018-02-17T03:07:31.621Z,6.19
2018-02-17T03:10:03.882Z,6.11
2018-02-17T03:12:33.686Z,6.15
2018-02-17T03:15:07.756Z,6.16
2018-02-17T03:17:37.925Z,6.18
2018-02-17T03:20:13.725Z,6.21
2018-02-17T03:22:44.244Z,6.15
2018-02-17T03:25:13.846Z,6.17
2018-02-17T03:27:45.573Z,6.17
2018-02-17T03:30:16.582Z,6.24
2018-02-17T03:32:46.755Z,6.21
2018-02-17T03:35:16.850Z,6.24
2018-02-17T03:37:46.275Z,6.14
2018-02-17T03:40:15.625Z,6.15
2018-02-17T03:42:47.211Z,6.22
2018-02-17T03:45:16.682Z,6.23
2018-02-17T03:47:46.443Z,6.28
2018-02-17T03:50:15.671Z,6.20
2018-02-17T03:52:45.216Z,6.21
2018-02-17T03:55:15.898Z,6.17
2018-02-17T03:57:45.148Z,6.08
2018-02-17T04:00:15.394Z,6.11
2018-02-17T04:02:45.535Z,6.11
2018-02-17T04:05:17.134Z,6.09
2018-02-17T04:07:47.419Z,6.12
2018-02-17T04:10:17.165Z,6.13
2018-02-17T04:12:46.413Z,6.10
2018-02-17T04:15:16.007Z,6.09
2018-02-17T04:17:45.585Z,6.03
2018-02-17T04:20:14.799Z,6.10
2018-02-17T04:22:48.834Z,6.02
2018-02-17T04:25:31.190Z,5.95
2018-02-17T04:28:01.422Z,5.91
2018-02-17T04:30:31.635Z,5.86
2018-02-17T04:33:05.218Z,5.87
2018-02-17T04:35:37.595Z,5.86
2018-02-17T04:38:12.142Z,5.91
2018-02-17T04:40:43.988Z,5.91
2018-02-17T04:43:25.042Z,5.90
2018-02-17T04:45:59.965Z,5.92
2018-02-17T04:48:35.342Z,5.96
2018-02-17T04:51:11.246Z,6.01
2018-02-17T04:53:40.602Z,5.92
2018-02-17T04:56:12.761Z,5.92
2018-02-17T04:58:42.526Z,5.95
2018-02-17T05:01:12.807Z,5.96
2018-02-17T05:03:42.580Z,6.00
2018-02-17T05:06:15.833Z,6.02
2018-02-17T05:08:46.075Z,6.04
2018-02-17T05:11:18.358Z,6.07
2018-02-17T05:13:47.731Z,6.03
2018-02-17T05:16:17.147Z,6.05
2018-02-17T05:18:47.229Z,5.96
2018-02-17T05:21:16.720Z,5.78
2018-02-17T05:23:48.909Z,5.70
2018-02-17T05:26:20.355Z,5.67
2018-02-17T05:28:49.968Z,5.72
2018-02-17T05:31:19.626Z,5.72
2018-02-17T05:33:51.452Z,5.72
2018-02-17T05:36:26.491Z,5.74
2018-02-17T05:38:55.990Z,5.80
2018-02-17T05:41:26.084Z,5.80
2018-02-17T05:43:56.063Z,5.82
2018-02-17T05:46:26.150Z,5.78
2018-02-17T05:48:58.049Z,5.86
2018-02-17T05:51:30.015Z,5.91
2018-02-17T05:53:59.355Z,5.92
2018-02-17T05:56:29.179Z,5.93
2018-02-17T05:58:58.667Z,5.91
2018-02-17T06:01:27.922Z,5.87
2018-02-17T06:03:57.599Z,5.86
2018-02-17T06:06:27.193Z,5.79
2018-02-17T06:08:58.278Z,5.86
2018-02-17T06:11:29.264Z,5.93
2018-02-17T06:13:58.569Z,5.96
2018-02-17T06:16:28.888Z,5.93
2018-02-17T06:18:58.677Z,5.96
2018-02-17T06:21:28.883Z,6.04
2018-02-17T06:23:58.377Z,6.03
2018-02-17T06:26:28.165Z,6.08
2018-02-17T06:28:58.248Z,6.19
2018-02-17T06:31:38.116Z,6.15
2018-02-17T06:34:13.525Z,6.14
2018-02-17T06:36:42.957Z,6.11
2018-02-17T06:39:15.935Z,6.17
2018-02-17T06:41:45.736Z,6.22
2018-02-17T06:44:15.277Z,6.24
2018-02-17T06:46:44.659Z,6.27
2018-02-17T06:49:16.008Z,6.27
2018-02-17T06:51:45.873Z,6.31
2018-02-17T06:54:25.512Z,6.38
2018-02-17T06:56:55.642Z,6.25
2018-02-17T06:59:36.570Z,6.13
2018-02-17T07:02:20.411Z,6.04
2018-02-17T07:04:54.238Z,5.80
2018-02-17T07:07:23.662Z,5.75
2018-02-17T07:09:52.857Z,5.77
2018-02-17T07:12:22.860Z,5.78
2018-02-17T07:14:54.018Z,5.76
2018-02-17T07:17:25.481Z,5.67
2018-02-17T07:19:57.168Z,5.73
2018-02-17T07:22:29.670Z,5.77
2018-02-17T07:24:59.821Z,5.82
2018-02-17T07:27:29.667Z,5.63
2018-02-17T07:30:03.555Z,5.38
2018-02-17T07:32:34.938Z,5.28
2018-02-17T07:35:10.172Z,5.18
2018-02-17T07:37:40.381Z,5.18
2018-02-17T07:40:09.665Z,5.10
2018-02-17T07:42:39.878Z,5.14
2018-02-17T07:45:12.484Z,5.13
2018-02-17T07:47:42.267Z,5.12
2018-02-17T07:50:14.145Z,5.00
2018-02-17T07:52:45.434Z,5.02
2018-02-17T07:55:16.925Z,5.01
2018-02-17T07:57:48.012Z,5.04
2018-02-17T08:00:18.234Z,5.08
2018-02-17T08:02:47.954Z,5.00
2018-02-17T08:05:17.479Z,4.94
2018-02-17T08:07:47.251Z,4.78
2018-02-17T08:10:23.464Z,4.73
2018-02-17T08:12:53.253Z,4.57
2018-02-17T08:15:23.064Z,4.61
2018-02-17T08:17:52.642Z,4.68
2018-02-17T08:20:23.639Z,4.72
2018-02-17T08:22:54.688Z,4.80
2018-02-17T08:25:26.267Z,4.86
2018-02-17T08:27:58.065Z,4.96
2018-02-17T08:30:28.923Z,4.98
2018-02-17T08:33:00.151Z,4.99
2018-02-17T08:35:31.002Z,5.03
2018-02-17T08:38:01.621Z,5.04
2018-02-17T08:40:31.575Z,5.13
2018-02-17T08:43:00.803Z,5.23
2018-02-17T08:45:32.065Z,5.32
2018-02-17T08:48:06.316Z,5.31
2018-02-17T08:50:37.220Z,5.41
2018-02-17T08:53:15.581Z,5.47
2018-02-17T08:55:45.159Z,5.49
2018-02-17T08:58:25.773Z,5.57
2018-02-17T09:01:20.047Z,5.60
2018-02-17T09:06:49.038Z,5.71
2018-02-17T09:09:48.728Z,5.87
2018-02-17T09:12:42.808Z,5.94
2018-02-17T09:15:28.813Z,5.92
2018-02-17T09:21:25.049Z,6.06
2018-02-17T09:24:20.056Z,6.21
2018-02-17T09:26:50.318Z,6.26
2018-02-17T09:29:21.531Z,6.30
2018-02-17T09:31:51.002Z,6.33
2018-02-17T09:34:22.070Z,6.42
2018-02-17T09:36:52.479Z,6.53
2018-02-17T09:39:21.901Z,6.46
2018-02-17T09:41:52.652Z,6.38
2018-02-17T09:44:21.976Z,6.54
2018-02-17T09:46:53.384Z,6.52
2018-02-17T09:49:24.760Z,6.62
2018-02-17T09:54:46.665Z,6.57
2018-02-17T09:57:18.021Z,6.58
2018-02-17T09:59:48.267Z,6.65
2018-02-17T10:02:19.228Z,6.51
2018-02-17T10:07:16.748Z,6.47
2018-02-17T10:09:46.462Z,6.47
2018-02-17T10:12:19.563Z,6.53
2018-02-17T10:14:50.383Z,6.58
2018-02-17T10:17:19.675Z,6.63
2018-02-17T10:19:49.175Z,6.62
2018-02-17T10:22:18.723Z,6.62
2018-02-17T10:24:48.586Z,6.63
2018-02-17T10:27:33.373Z,6.62
2018-02-17T10:30:06.689Z,6.60
2018-02-17T10:32:37.907Z,6.64
2018-02-17T10:35:11.414Z,6.61
2018-02-17T10:37:47.549Z,6.59
2018-02-17T10:40:18.794Z,6.57
2018-02-17T10:42:48.194Z,6.57
2018-02-17T10:45:17.627Z,6.56
2018-02-17T10:47:47.645Z,6.46
2018-02-17T10:50:19.766Z,6.39
2018-02-17T10:52:49.362Z,6.30
2018-02-17T10:55:19.933Z,6.27
2018-02-17T10:57:49.298Z,6.22
2018-02-17T11:00:27.460Z,6.08
2018-02-17T11:02:57.454Z,6.10
2018-02-17T11:05:28.311Z,6.15
2018-02-17T11:07:59.854Z,6.16
2018-02-17T11:10:32.166Z,6.12
2018-02-17T11:13:07.942Z,5.97
2018-02-17T11:15:37.557Z,5.90
2018-02-17T11:18:07.459Z,5.88
2018-02-17T11:20:37.442Z,5.86
2018-02-17T11:23:08.885Z,5.93
2018-02-17T11:25:38.363Z,5.97
2018-02-17T11:28:11.870Z,5.98
2018-02-17T11:30:41.502Z,6.01
2018-02-17T11:33:15.047Z,5.94
2018-02-17T11:35:44.839Z,5.91
2018-02-17T11:38:14.575Z,5.83
2018-02-17T11:40:45.584Z,5.81
2018-02-17T11:43:21.569Z,5.80
2018-02-17T11:45:56.357Z,5.89
2018-02-17T11:48:28.984Z,5.95
2018-02-17T11:51:00.663Z,5.88
2018-02-17T11:53:31.066Z,5.89
2018-02-17T11:56:04.654Z,5.95
2018-02-17T11:58:34.820Z,5.95
2018-02-17T12:01:13.285Z,6.02
2018-02-17T12:03:44.156Z,6.07
2018-02-17T12:06:13.403Z,6.04
2018-02-17T12:08:42.654Z,6.08
2018-02-17T12:11:12.417Z,6.13
2018-02-17T12:13:42.755Z,6.16
2018-02-17T12:16:14.650Z,6.25
2018-02-17T12:18:47.952Z,6.23
2018-02-17T12:21:25.121Z,6.14
2018-02-17T12:23:56.671Z,6.23
2018-02-17T12:26:29.218Z,6.30
2018-02-17T12:28:58.708Z,6.31
2018-02-17T12:31:28.185Z,6.36
2018-02-17T12:33:58.621Z,6.44
2018-02-17T12:36:29.053Z,6.45
2018-02-17T12:38:58.974Z,6.47
2018-02-17T12:41:28.640Z,6.51
2018-02-17T12:44:03.647Z,6.59
2018-02-17T12:46:32.938Z,6.64
2018-02-17T12:49:03.660Z,6.66
2018-02-17T12:51:35.759Z,6.59
2018-02-17T12:54:07.791Z,6.62
2018-02-17T12:56:40.554Z,6.67
2018-02-17T12:59:10.079Z,6.68
2018-02-17T13:01:41.420Z,6.73
2018-02-17T13:04:13.907Z,6.76
2018-02-17T13:06:43.322Z,6.79
2018-02-17T13:09:13.703Z,6.75
2018-02-17T13:11:46.007Z,6.77
2018-02-17T13:14:17.248Z,6.77
2018-02-17T13:16:48.846Z,6.80
2018-02-17T13:19:21.131Z,6.85
2018-02-17T13:21:50.510Z,6.83
2018-02-17T13:24:28.533Z,6.71
2018-02-17T13:27:06.107Z,6.71
2018-02-17T13:29:38.206Z,6.70
2018-02-17T13:32:08.515Z,6.65
2018-02-17T13:34:37.914Z,6.47
2018-02-17T13:37:10.078Z,6.66
2018-02-17T13:39:40.139Z,6.62
2018-02-17T13:42:15.186Z,6.70
2018-02-17T13:44:45.410Z,6.69
2018-02-17T13:47:14.847Z,6.67
2018-02-17T13:49:44.102Z,6.67
2018-02-17T13:52:14.331Z,6.72
2018-02-17T13:54:43.823Z,6.64
2018-02-17T13:57:13.191Z,6.57
2018-02-17T13:59:45.695Z,6.56
2018-02-17T14:02:18.902Z,6.54
2018-02-17T14:04:51.394Z,6.58
2018-02-17T14:07:21.883Z,6.57
2018-02-17T14:09:52.069Z,6.45
2018-02-17T14:12:23.287Z,6.29
2018-02-17T14:14:53.794Z,6.38
2018-02-17T14:17:33.630Z,6.36
2018-02-17T14:20:06.892Z,6.45
2018-02-17T14:22:37.690Z,6.38
2018-02-17T14:25:08.334Z,6.30
2018-02-17T14:27:38.933Z,6.31
2018-02-17T14:30:08.204Z,6.36
2018-02-17T14:32:37.554Z,6.32
2018-02-17T14:35:06.835Z,6.25
2018-02-17T14:37:36.250Z,6.18
2018-02-17T14:40:11.592Z,6.18
2018-02-17T14:42:41.538Z,6.18
2018-02-17T14:45:12.671Z,6.14
2018-02-17T14:47:43.363Z,6.19
2018-02-17T14:50:23.252Z,6.15
2018-02-17T14:52:53.539Z,6.07
2018-02-17T14:55:22.872Z,6.23
2018-02-17T14:57:52.537Z,6.32
2018-02-17T15:00:21.941Z,6.32
2018-02-17T15:02:51.352Z,6.31
2018-02-17T15:05:21.046Z,6.21
2018-02-17T15:07:52.476Z,6.26
2018-02-17T15:10:26.314Z,6.26
2018-02-17T15:12:59.320Z,6.24
2018-02-17T15:15:33.569Z,6.24
2018-02-17T15:18:07.212Z,6.29
2018-02-17T15:20:37.794Z,6.28
2018-02-17T15:23:07.884Z,6.39
2018-02-17T15:25:39.433Z,6.43
2018-02-17T15:28:08.891Z,6.45
2018-02-17T15:30:38.455Z,6.45
2018-02-17T15:33:07.718Z,6.51
2018-02-17T15:35:37.252Z,6.52
2018-02-17T15:38:07.639Z,6.57
2018-02-17T15:40:37.353Z,6.59
2018-02-17T15:43:08.369Z,6.56
2018-02-17T15:45:37.571Z,6.57
2018-02-17T15:48:08.329Z,6.55
2018-02-17T15:50:38.254Z,6.51
2018-02-17T15:53:13.857Z,6.59
2018-02-17T15:55:44.961Z,6.54
2018-02-17T15:58:15.326Z,6.56
2018-02-17T16:00:45.972Z,6.58
2018-02-17T16:03:18.158Z,6.59
2018-02-17T16:05:47.971Z,6.54
2018-02-17T16:08:17.613Z,6.55
2018-02-17T16:10:48.267Z,6.55
2018-02-17T16:13:18.735Z,6.56
2018-02-17T16:15:49.307Z,6.55
2018-02-17T16:18:18.515Z,6.60
2018-02-17T16:20:49.198Z,6.55
2018-02-17T16:23:20.694Z,6.60
2018-02-17T16:25:49.972Z,6.57
2018-02-17T16:28:19.410Z,6.51
2018-02-17T16:30:49.420Z,6.51
2018-02-17T16:33:22.571Z,6.55
2018-02-17T16:35:56.363Z,6.54
2018-02-17T16:38:31.516Z,6.55
2018-02-17T16:41:02.820Z,6.55
2018-02-17T16:43:33.743Z,6.57
2018-02-17T16:46:04.942Z,6.58
2018-02-17T16:48:35.138Z,6.62
2018-02-17T16:51:06.518Z,6.53
2018-02-17T16:53:37.707Z,6.47
2018-02-17T16:56:07.222Z,6.57
2018-02-17T16:58:38.826Z,6.58
2018-02-17T17:01:08.145Z,6.54
2018-02-17T17:03:39.074Z,6.53
2018-02-17T17:06:08.992Z,6.52
2018-02-17T17:08:41.055Z,6.51
2018-02-17T17:11:11.372Z,6.53
2018-02-17T17:13:42.127Z,6.55
2018-02-17T17:16:14.691Z,6.55
2018-02-17T17:18:44.990Z,6.55
2018-02-17T17:21:15.212Z,6.57
2018-02-17T17:23:46.845Z,6.50
2018-02-17T17:26:16.690Z,6.41
2018-02-17T17:28:45.906Z,6.45
2018-02-17T17:31:15.282Z,6.51
2018-02-17T17:33:44.861Z,6.46
2018-02-17T17:36:14.260Z,6.40
2018-02-17T17:38:47.780Z,6.45
2018-02-17T17:41:18.545Z,6.43
2018-02-17T17:43:49.164Z,6.40
2018-02-17T17:46:20.132Z,6.35
2018-02-17T17:48:50.380Z,6.27
2018-02-17T17:51:23.051Z,6.27
2018-02-17T17:53:52.311Z,6.30
2018-02-17T17:56:23.726Z,6.31
2018-02-17T17:59:01.189Z,6.31
2018-02-17T18:01:32.716Z,6.34
2018-02-17T18:04:04.658Z,6.33
2018-02-17T18:06:35.663Z,6.37
2018-02-17T18:09:07.099Z,6.30
2018-02-17T18:11:38.666Z,6.28
2018-02-17T18:14:10.750Z,6.23
2018-02-17T18:19:15.847Z,6.19
2018-02-17T18:21:46.845Z,6.20
2018-02-17T18:24:16.963Z,6.23
2018-02-17T18:26:46.461Z,6.22
2018-02-17T18:29:20.826Z,6.22
2018-02-17T18:31:53.589Z,6.16
2018-02-17T18:34:22.923Z,6.20
2018-02-17T18:36:52.763Z,6.15
2018-02-17T18:39:24.507Z,6.10
2018-02-17T18:41:55.457Z,6.02
2018-02-17T18:44:25.878Z,5.99
2018-02-17T18:46:56.125Z,5.99
2018-02-17T18:49:25.818Z,5.97
2018-02-17T18:51:56.487Z,5.92
2018-02-17T18:54:25.935Z,5.94
2018-02-17T18:59:18.970Z,5.88
2018-02-17T19:01:48.570Z,5.90
2018-02-17T19:04:18.028Z,5.92
2018-02-17T19:06:50.104Z,5.91
2018-02-17T19:09:21.559Z,5.95
2018-02-17T19:11:51.782Z,5.95
2018-02-17T19:14:22.055Z,5.95
2018-02-17T19:16:51.446Z,5.92
2018-02-17T19:19:20.648Z,5.94
2018-02-17T19:21:54.352Z,5.94
2018-02-17T19:24:25.586Z,5.92
2018-02-17T19:26:54.971Z,5.93
2018-02-17T19:29:24.362Z,5.95
2018-02-17T19:31:53.651Z,5.95
2018-02-17T19:34:23.594Z,5.94
2018-02-17T19:36:53.201Z,5.95
2018-02-17T19:39:24.618Z,5.94
2018-02-17T19:41:56.240Z,5.95
2018-02-17T19:44:26.935Z,6.00
2018-02-17T19:46:58.207Z,5.98
2018-02-17T19:49:29.374Z,5.97
2018-02-17T19:52:01.370Z,5.96
2018-02-17T19:54:30.737Z,5.94
2018-02-17T19:57:01.017Z,5.90
2018-02-17T19:59:45.287Z,5.95
2018-02-17T20:02:17.361Z,6.00
2018-02-17T20:04:49.959Z,5.98
2018-02-17T20:07:19.178Z,5.97
2018-02-17T20:09:49.428Z,5.97
2018-02-17T20:12:19.129Z,5.94
2018-02-17T20:14:49.035Z,5.89
2018-02-17T20:17:25.213Z,5.88
2018-02-17T20:19:55.097Z,5.94
2018-02-17T20:22:26.443Z,5.93
2018-02-17T20:24:55.907Z,5.88
2018-02-17T20:27:25.396Z,5.86
2018-02-17T20:29:57.878Z,5.80
2018-02-17T20:32:30.367Z,5.82
2018-02-17T20:34:59.775Z,5.79
2018-02-17T20:37:30.867Z,5.85
2018-02-17T20:40:11.074Z,5.87
2018-02-17T20:49:22.684Z,5.65
2018-02-17T20:55:03.740Z,5.61
2018-02-17T20:57:32.979Z,5.59
2018-02-17T21:00:03.362Z,5.59
2018-02-17T21:02:32.652Z,5.56
2018-02-17T21:05:02.295Z,5.57
2018-02-17T21:07:32.666Z,5.53
2018-02-17T21:10:03.144Z,5.49
2018-02-17T21:12:33.559Z,5.42
2018-02-17T21:15:05.222Z,5.44
2018-02-17T21:17:35.382Z,5.40
2018-02-17T21:20:06.000Z,5.37
2018-02-17T21:22:36.252Z,5.32
2018-02-17T21:25:05.572Z,5.25
2018-02-17T21:27:35.199Z,5.22
2018-02-17T21:30:06.006Z,5.24
2018-02-17T21:32:35.436Z,5.20
2018-02-17T21:35:05.627Z,5.11
2018-02-17T21:37:35.576Z,5.07
2018-02-17T21:40:05.577Z,5.09
2018-02-17T21:42:34.842Z,5.05
2018-02-17T21:45:05.081Z,5.02
2018-02-17T21:47:35.539Z,5.03
2018-02-17T21:50:05.594Z,5.00
2018-02-17T21:52:35.803Z,5.03
2018-02-17T21:55:05.925Z,4.88
2018-02-17T21:57:35.567Z,4.85
2018-02-17T22:00:07.100Z,4.84
2018-02-17T22:02:36.540Z,4.89
2018-02-17T22:05:05.899Z,4.84
2018-02-17T22:07:35.517Z,4.80
2018-02-17T22:10:05.575Z,4.79
2018-02-17T22:12:35.963Z,4.79
2018-02-17T22:15:05.812Z,4.82
2018-02-17T22:17:35.052Z,4.84
2018-02-17T22:20:06.896Z,4.86
2018-02-17T22:22:36.635Z,4.83
2018-02-17T22:25:05.926Z,4.80
2018-02-17T22:27:35.221Z,4.78
2018-02-17T22:30:06.158Z,4.68
2018-02-17T22:32:35.510Z,4.65
2018-02-17T22:35:05.030Z,4.67
2018-02-17T22:37:35.450Z,4.72
2018-02-17T22:40:05.524Z,4.71
2018-02-17T22:42:34.928Z,4.67
2018-02-17T22:45:04.975Z,4.66
2018-02-17T22:47:34.524Z,4.62
2018-02-17T22:50:04.568Z,4.57
2018-02-17T22:52:34.318Z,4.58
2018-02-17T22:55:03.936Z,4.55
2018-02-17T22:57:33.436Z,4.52
2018-02-17T23:00:04.923Z,4.52
2018-02-17T23:02:35.027Z,4.47
2018-02-17T23:05:04.865Z,4.45
2018-02-17T23:07:35.796Z,4.45
2018-02-17T23:10:06.518Z,4.40
2018-02-17T23:12:35.958Z,4.41
2018-02-17T23:15:06.041Z,4.41
2018-02-17T23:17:35.363Z,4.43
2018-02-17T23:20:06.443Z,4.43
2018-02-17T23:22:36.364Z,4.40
2018-02-17T23:25:05.804Z,4.36
2018-02-17T23:27:35.255Z,4.34
2018-02-17T23:30:06.174Z,4.34
2018-02-17T23:32:35.496Z,4.31
2018-02-17T23:35:05.011Z,4.31
2018-02-17T23:37:34.807Z,4.32
2018-02-17T23:40:05.418Z,4.29
2018-02-17T23:42:35.975Z,4.28
2018-02-17T23:45:07.381Z,4.25
2018-02-17T23:47:36.703Z,4.27
2018-02-17T23:50:07.000Z,4.24
2018-02-17T23:52:36.596Z,4.23
2018-02-17T23:55:05.919Z,4.16
2018-02-17T23:57:36.484Z,4.16
